首页
METAR-TAF:

METAR-TAF

机场 :

苏丹阿都哈林机场

亚罗士打, 马来西亚

纬度: 06-11-40N, 经度: 100-24-03E, 海拔: 5米

当前天气观测

该预报发布于1小时和16分钟前的16:00 UTC
静风
温度 27°C
湿度 84%
气压 1011 hPa
能见度10公里或以上
少量云层高于3000英尺
散云层高于14000英尺
多云层高于28000英尺

METAR: WMKA 121600Z 00000KT 9999 FEW030 SCT140 BKN280 27/24 Q1011

时间: 01:16 (17:16 UTC)

预报

该预报发布于6小时和16分钟前的11:00 UTC
预报有效从12日的 12点(UTC)到 13日的 12点(UTC)
风速5节,风向东转东北
能见度10公里或以上
少量云层高于3000英尺
短暂存在
从 12日的 12点(UTC)到 12日的 15点(UTC)
能見度: 6000
少量云层高于1000英尺
少量云层高于1700英尺, 积雨云.
雷暴, 小雨
成为
从 13日的 02点(UTC)到 13日的 04点(UTC)
风速10节,风向
少量云层高于1700英尺, 积雨云.

TAF: WMKA 121100Z 1212/1312 06005KT 9999 FEW030 TEMPO 1212/1215 6000 -TSRA FEW010 FEW017CB BECMG 1302/1304 08010KT FEW017CB

超过4000个机场的气象观测和天气预报(METAR&TAF报告)。

可查询的气象台以黄色和红色小点在地图上表示。

将鼠标移到小点上方,可查看气象台名称。

然后点击查看天气观测和预报。

如需切换地图:点击带黑十字的绿色按钮放大地图;点击带横线的绿色按钮缩小地图;或者点击绿色箭头查看邻近地区的地图。


METAR-TAF: